createdAt,value
2022-12-17T00:00:37.482Z,28.30
2022-12-17T00:03:28.989Z,26.80
2022-12-17T00:06:14.516Z,26.63
2022-12-17T00:09:00.122Z,28.02
2022-12-17T00:11:45.475Z,26.25
2022-12-17T00:14:31.002Z,27.25
2022-12-17T00:17:16.473Z,28.08
2022-12-17T00:20:01.784Z,29.05
2022-12-17T00:22:56.146Z,28.40
2022-12-17T00:25:58.310Z,28.73
2022-12-17T00:28:43.478Z,29.17
2022-12-17T00:31:29.020Z,28.63
2022-12-17T00:34:28.091Z,27.38
2022-12-17T00:37:13.743Z,28.23
2022-12-17T00:39:59.607Z,26.45
2022-12-17T00:42:45.122Z,27.02
2022-12-17T00:45:30.562Z,28.40
2022-12-17T00:48:16.001Z,33.25
2022-12-17T00:51:08.203Z,32.17
2022-12-17T00:53:53.660Z,30.20
2022-12-17T00:56:40.622Z,29.48
2022-12-17T00:59:33.592Z,29.00
2022-12-17T01:02:19.179Z,26.45
2022-12-17T01:05:04.456Z,27.75
2022-12-17T01:07:49.924Z,25.65
2022-12-17T01:10:35.403Z,25.05
2022-12-17T01:13:20.806Z,26.02
2022-12-17T01:16:06.223Z,25.48
2022-12-17T01:18:51.509Z,26.50
2022-12-17T01:21:37.095Z,26.10
2022-12-17T01:24:22.677Z,25.92
2022-12-17T01:27:08.299Z,25.90
2022-12-17T01:29:53.754Z,24.85
2022-12-17T01:32:41.854Z,26.10
2022-12-17T01:35:27.537Z,24.92
2022-12-17T01:38:13.030Z,25.70
2022-12-17T01:40:58.498Z,25.33
2022-12-17T01:43:54.288Z,24.73
2022-12-17T01:46:41.543Z,25.90
2022-12-17T01:49:29.494Z,25.55
2022-12-17T01:52:16.613Z,24.85
2022-12-17T01:55:02.223Z,25.27
2022-12-17T01:57:49.138Z,25.83
2022-12-17T02:00:35.918Z,25.95
2022-12-17T02:03:22.336Z,25.33
2022-12-17T02:06:21.890Z,24.52
2022-12-17T02:09:43.603Z,25.77
2022-12-17T02:12:59.686Z,24.10
2022-12-17T02:15:56.214Z,25.23
2022-12-17T02:18:45.910Z,25.65
2022-12-17T02:21:32.416Z,25.75
2022-12-17T02:24:22.332Z,25.77
2022-12-17T02:27:20.364Z,25.33
2022-12-17T02:30:13.544Z,25.95
2022-12-17T02:33:02.405Z,26.90
2022-12-17T02:35:55.557Z,24.75
2022-12-17T02:38:45.236Z,25.33
2022-12-17T02:41:47.983Z,24.30
2022-12-17T02:44:36.365Z,28.95
2022-12-17T02:47:26.298Z,27.45
2022-12-17T02:50:11.907Z,27.33
2022-12-17T02:53:00.937Z,28.73
2022-12-17T02:55:46.662Z,28.88
2022-12-17T02:58:32.331Z,28.48
2022-12-17T03:01:17.955Z,26.67
2022-12-17T03:04:03.338Z,26.23
2022-12-17T03:06:48.803Z,26.10
2022-12-17T03:09:34.232Z,24.95
2022-12-17T03:12:19.742Z,25.70
2022-12-17T03:15:05.177Z,25.63
2022-12-17T03:17:50.772Z,24.08
2022-12-17T03:20:36.302Z,24.70
2022-12-17T03:23:33.197Z,24.08
2022-12-17T03:26:21.051Z,24.92
2022-12-17T03:29:07.073Z,23.92
2022-12-17T03:31:52.669Z,24.48
2022-12-17T03:34:38.138Z,23.35
2022-12-17T03:37:37.172Z,23.33
2022-12-17T03:40:22.717Z,24.40
2022-12-17T03:43:08.350Z,24.65
2022-12-17T03:45:54.112Z,24.05
2022-12-17T03:48:39.523Z,25.13
2022-12-17T03:51:25.247Z,23.90
2022-12-17T03:54:10.693Z,24.27
2022-12-17T03:56:56.340Z,23.08
2022-12-17T03:59:41.890Z,24.45
2022-12-17T04:02:27.523Z,24.38
2022-12-17T04:05:19.696Z,24.90
2022-12-17T04:08:06.095Z,24.52
2022-12-17T04:10:51.288Z,23.73
2022-12-17T04:13:40.685Z,23.45
2022-12-17T04:16:26.684Z,23.40
2022-12-17T04:19:12.094Z,23.88
2022-12-17T04:21:57.482Z,22.63
2022-12-17T04:24:43.087Z,24.00
2022-12-17T04:27:28.490Z,25.73
2022-12-17T04:30:13.986Z,23.70
2022-12-17T04:32:59.379Z,23.50
2022-12-17T04:35:44.924Z,23.63
2022-12-17T04:38:30.319Z,24.10
2022-12-17T04:41:15.751Z,25.08
2022-12-17T04:44:03.446Z,24.70
2022-12-17T04:46:48.955Z,23.58
2022-12-17T04:49:34.301Z,23.65
2022-12-17T04:52:19.923Z,23.92
2022-12-17T04:55:04.967Z,22.60
2022-12-17T04:57:50.521Z,24.25
2022-12-17T05:00:35.990Z,22.67
2022-12-17T05:03:26.105Z,24.30
2022-12-17T05:06:15.628Z,24.95
2022-12-17T05:09:01.158Z,24.98
2022-12-17T05:11:46.601Z,24.95
2022-12-17T05:14:32.302Z,24.35
2022-12-17T05:17:37.605Z,25.05
2022-12-17T05:20:23.671Z,26.73
2022-12-17T05:23:09.132Z,26.63
2022-12-17T05:25:54.609Z,25.92
2022-12-17T05:28:39.965Z,25.17
2022-12-17T05:31:25.552Z,24.65
2022-12-17T05:34:10.759Z,24.02
2022-12-17T05:36:56.345Z,24.02
2022-12-17T05:39:41.884Z,24.73
2022-12-17T05:42:27.426Z,25.80
2022-12-17T05:45:12.983Z,25.40
2022-12-17T05:48:06.412Z,26.13
2022-12-17T05:50:51.726Z,25.13
2022-12-17T05:53:37.226Z,24.13
2022-12-17T05:56:23.142Z,25.65
2022-12-17T05:59:08.502Z,25.02
2022-12-17T06:01:54.050Z,26.55
2022-12-17T06:04:39.569Z,25.70
2022-12-17T06:07:30.736Z,24.20
2022-12-17T06:10:16.235Z,24.45
2022-12-17T06:13:17.870Z,24.90
2022-12-17T06:16:07.841Z,24.73
2022-12-17T06:18:53.875Z,25.17
2022-12-17T06:21:39.554Z,24.30
2022-12-17T06:24:25.097Z,24.10
2022-12-17T06:27:11.211Z,25.20
2022-12-17T06:29:56.818Z,25.08
2022-12-17T06:32:48.960Z,24.27
2022-12-17T06:35:34.475Z,22.65
2022-12-17T06:38:22.068Z,22.85
2022-12-17T06:41:07.710Z,23.05
2022-12-17T06:43:53.215Z,25.02
2022-12-17T06:46:38.832Z,28.48
2022-12-17T06:49:24.313Z,28.27
2022-12-17T06:52:09.986Z,26.23
2022-12-17T06:54:56.014Z,28.30
2022-12-17T06:57:45.107Z,23.65
2022-12-17T07:00:34.372Z,24.88
2022-12-17T07:03:19.988Z,26.30
2022-12-17T07:06:05.532Z,23.85
2022-12-17T07:08:51.384Z,24.88
2022-12-17T07:11:38.162Z,25.38
2022-12-17T07:14:23.625Z,25.75
2022-12-17T07:17:09.177Z,24.70
2022-12-17T07:19:54.694Z,23.50
2022-12-17T07:22:41.207Z,27.17
2022-12-17T07:25:26.985Z,23.70
2022-12-17T07:28:15.958Z,24.42
2022-12-17T07:31:01.545Z,24.33
2022-12-17T07:33:47.192Z,24.00
2022-12-17T07:36:39.539Z,25.48
2022-12-17T07:39:24.719Z,25.17
2022-12-17T07:42:10.731Z,25.48
2022-12-17T07:44:56.213Z,25.42
2022-12-17T07:47:41.723Z,27.77
2022-12-17T07:50:27.398Z,27.42
2022-12-17T07:53:23.117Z,29.73
2022-12-17T07:56:09.948Z,33.90
2022-12-17T07:58:55.575Z,29.52
2022-12-17T08:01:41.384Z,30.42
2022-12-17T08:04:26.722Z,28.65
2022-12-17T08:07:14.116Z,31.10
2022-12-17T08:09:59.884Z,34.47
2022-12-17T08:12:45.457Z,39.03
2022-12-17T08:15:31.119Z,44.92
2022-12-17T08:18:26.090Z,39.78
2022-12-17T08:21:12.205Z,38.10
2022-12-17T08:23:57.651Z,38.60
2022-12-17T08:26:47.937Z,33.28
2022-12-17T08:29:33.614Z,33.58
2022-12-17T08:32:19.064Z,33.53
2022-12-17T08:35:04.239Z,35.53
2022-12-17T08:37:50.290Z,35.20
2022-12-17T08:40:35.513Z,34.63
2022-12-17T08:43:21.060Z,33.10
2022-12-17T08:46:11.255Z,33.58
2022-12-17T08:48:58.140Z,33.08
2022-12-17T08:51:43.895Z,32.40
2022-12-17T08:54:30.061Z,30.20
2022-12-17T08:57:27.038Z,30.73
2022-12-17T09:00:16.580Z,29.58
2022-12-17T09:03:02.138Z,29.38
2022-12-17T09:05:47.581Z,29.15
2022-12-17T09:08:58.904Z,27.73
2022-12-17T09:11:44.413Z,27.80
2022-12-17T09:14:29.867Z,28.58
2022-12-17T09:17:15.509Z,28.67
2022-12-17T09:20:05.587Z,28.50
2022-12-17T09:22:51.166Z,26.95
2022-12-17T09:25:36.625Z,27.27
2022-12-17T09:28:22.758Z,23.92
2022-12-17T09:31:08.858Z,24.85
2022-12-17T09:33:54.669Z,24.17
2022-12-17T09:36:40.146Z,26.30
2022-12-17T09:39:25.637Z,26.42
2022-12-17T09:42:17.095Z,26.77
2022-12-17T09:45:11.171Z,26.63
2022-12-17T09:48:10.651Z,28.35
2022-12-17T09:50:56.287Z,27.70
2022-12-17T09:53:55.065Z,28.50
2022-12-17T09:56:45.012Z,28.15
2022-12-17T09:59:44.520Z,28.15
2022-12-17T10:02:39.983Z,29.10
2022-12-17T10:05:30.750Z,30.40
2022-12-17T10:08:17.842Z,29.98
2022-12-17T10:11:05.461Z,30.10
2022-12-17T10:13:50.983Z,30.38
2022-12-17T10:16:57.888Z,30.98
2022-12-17T10:19:58.363Z,31.10
2022-12-17T10:22:45.368Z,31.50
2022-12-17T10:25:36.575Z,30.95
2022-12-17T10:28:25.814Z,31.35
2022-12-17T10:31:11.278Z,31.30
2022-12-17T10:34:01.190Z,30.80
2022-12-17T10:36:47.886Z,30.67
2022-12-17T10:39:41.766Z,30.23
2022-12-17T10:42:42.478Z,29.58
2022-12-17T10:45:36.941Z,29.30
2022-12-17T10:48:22.317Z,28.45
2022-12-17T10:51:07.851Z,28.70
2022-12-17T10:53:53.484Z,29.35
2022-12-17T10:56:45.379Z,27.70
2022-12-17T10:59:32.833Z,27.67
2022-12-17T11:02:18.790Z,25.20
2022-12-17T11:05:11.632Z,26.23
2022-12-17T11:08:01.481Z,25.42
2022-12-17T11:10:50.994Z,23.63
2022-12-17T11:13:48.210Z,23.42
2022-12-17T11:16:47.798Z,22.85
2022-12-17T11:20:04.273Z,22.30
2022-12-17T11:23:19.087Z,19.90
2022-12-17T11:26:10.215Z,20.85
2022-12-17T11:28:55.840Z,20.65
2022-12-17T11:32:09.051Z,21.52
2022-12-17T11:38:16.396Z,19.60
2022-12-17T11:41:08.098Z,18.98
2022-12-17T11:44:11.405Z,18.80
2022-12-17T11:47:14.171Z,20.23
2022-12-17T11:50:10.113Z,20.20
2022-12-17T11:53:29.316Z,19.55
2022-12-17T11:56:42.393Z,19.35
2022-12-17T11:59:38.040Z,18.88
2022-12-17T12:02:43.416Z,18.55
2022-12-17T12:05:48.934Z,18.23
2022-12-17T12:08:49.789Z,17.25
2022-12-17T12:12:21.312Z,16.45
2022-12-17T12:15:34.504Z,15.23
2022-12-17T12:21:13.980Z,14.70
2022-12-17T12:24:05.056Z,12.95
2022-12-17T12:27:08.311Z,13.95
2022-12-17T12:30:16.055Z,14.32
2022-12-17T12:33:47.167Z,15.35
2022-12-17T12:36:37.160Z,13.68
2022-12-17T12:39:24.116Z,14.07
2022-12-17T12:42:16.384Z,13.73
2022-12-17T12:45:21.935Z,14.63
2022-12-17T12:48:57.071Z,12.77
2022-12-17T12:51:46.805Z,13.88
2022-12-17T12:54:51.854Z,14.27
2022-12-17T12:57:46.281Z,12.55
2022-12-17T13:00:45.530Z,12.65
2022-12-17T13:03:52.832Z,13.82
2022-12-17T13:06:54.149Z,13.90
2022-12-17T13:09:35.122Z,13.60
2022-12-17T13:12:04.001Z,13.00
2022-12-17T13:14:44.529Z,14.10
2022-12-17T13:17:17.685Z,11.35
2022-12-17T13:19:58.927Z,11.35
2022-12-17T13:22:25.704Z,10.50
2022-12-17T13:24:56.949Z,10.75
2022-12-17T13:27:35.860Z,10.05
2022-12-17T13:30:18.119Z,10.77
2022-12-17T13:32:50.776Z,10.57
2022-12-17T13:35:20.310Z,10.60
2022-12-17T13:37:59.840Z,11.32
2022-12-17T13:41:10.129Z,10.10
2022-12-17T13:43:59.506Z,10.85
2022-12-17T13:46:47.361Z,10.73
2022-12-17T13:49:29.244Z,10.30
2022-12-17T13:52:11.871Z,10.50
2022-12-17T13:54:40.327Z,10.43
2022-12-17T13:57:15.409Z,9.73
2022-12-17T13:59:53.798Z,11.30
2022-12-17T14:02:30.387Z,11.27
2022-12-17T14:05:02.853Z,11.23
2022-12-17T14:07:38.098Z,11.65
2022-12-17T14:10:14.034Z,12.65
2022-12-17T14:12:41.038Z,12.90
2022-12-17T14:15:25.100Z,11.55
2022-12-17T14:17:53.690Z,12.52
2022-12-17T14:20:27.094Z,12.18
2022-12-17T14:23:01.533Z,12.18
2022-12-17T14:25:39.370Z,12.02
2022-12-17T14:28:21.549Z,12.10
2022-12-17T14:31:24.359Z,12.23
2022-12-17T14:33:37.807Z,11.52
2022-12-17T14:36:17.276Z,11.48
2022-12-17T14:38:58.047Z,11.13
2022-12-17T14:41:44.715Z,11.85
2022-12-17T14:44:25.142Z,11.98
2022-12-17T14:47:13.276Z,12.35
2022-12-17T14:49:55.957Z,11.85
2022-12-17T14:52:44.500Z,12.10
2022-12-17T14:55:37.306Z,12.50
2022-12-17T15:00:48.203Z,11.90
2022-12-17T15:03:21.967Z,12.45
2022-12-17T15:06:02.281Z,11.80
2022-12-17T15:08:36.819Z,12.90
2022-12-17T15:11:04.483Z,13.50
2022-12-17T15:13:32.010Z,18.67
2022-12-17T15:15:59.330Z,18.98
2022-12-17T15:18:26.538Z,21.98
2022-12-17T15:20:53.771Z,26.50
2022-12-17T15:23:23.233Z,27.80
2022-12-17T15:25:52.551Z,20.73
2022-12-17T15:28:20.965Z,21.02
2022-12-17T15:30:49.499Z,20.85
2022-12-17T15:33:16.902Z,19.75
2022-12-17T15:35:44.300Z,19.52
2022-12-17T15:38:12.674Z,18.95
2022-12-17T15:40:40.434Z,18.02
2022-12-17T15:43:13.578Z,18.88
2022-12-17T15:45:42.893Z,18.05
2022-12-17T15:48:11.129Z,19.25
2022-12-17T15:50:39.110Z,17.60
2022-12-17T15:53:06.830Z,19.58
2022-12-17T15:55:34.843Z,19.02
2022-12-17T15:58:02.204Z,19.08
2022-12-17T16:00:29.631Z,19.60
2022-12-17T16:02:56.979Z,19.35
2022-12-17T16:05:24.850Z,20.10
2022-12-17T16:07:52.322Z,21.17
2022-12-17T16:10:19.844Z,20.77
2022-12-17T16:12:46.972Z,19.88
2022-12-17T16:15:17.214Z,19.60
2022-12-17T16:17:44.629Z,19.50
2022-12-17T16:20:12.422Z,19.63
2022-12-17T16:22:39.512Z,21.85
2022-12-17T16:25:07.749Z,22.15
2022-12-17T16:27:34.873Z,20.58
2022-12-17T16:30:03.587Z,21.73
2022-12-17T16:32:36.064Z,20.25
2022-12-17T16:35:05.159Z,21.73
2022-12-17T16:37:32.401Z,22.10
2022-12-17T16:40:00.525Z,21.52
2022-12-17T16:42:28.274Z,22.30
2022-12-17T16:44:55.472Z,22.52
2022-12-17T16:47:22.572Z,21.75
2022-12-17T16:49:52.742Z,23.88
2022-12-17T16:52:19.975Z,22.23
2022-12-17T16:54:47.378Z,21.45
2022-12-17T16:57:14.733Z,20.35
2022-12-17T16:59:41.929Z,20.40
2022-12-17T17:02:16.251Z,19.40
2022-12-17T17:04:43.510Z,19.73
2022-12-17T17:07:10.910Z,19.88
2022-12-17T17:09:38.659Z,19.08
2022-12-17T17:12:06.041Z,19.38
2022-12-17T17:14:32.816Z,20.23
2022-12-17T17:16:59.661Z,20.58
2022-12-17T17:19:26.507Z,20.92
2022-12-17T17:21:54.445Z,19.77
2022-12-17T17:24:26.679Z,19.80
2022-12-17T17:26:55.149Z,23.17
2022-12-17T17:29:22.461Z,22.30
2022-12-17T17:34:39.851Z,23.48
2022-12-17T17:39:41.341Z,22.98
2022-12-17T17:42:08.520Z,23.40
2022-12-17T17:44:35.530Z,23.17
2022-12-17T17:47:02.397Z,26.35
2022-12-17T17:49:29.317Z,26.25
2022-12-17T17:52:12.169Z,27.58
2022-12-17T17:54:39.846Z,27.27
2022-12-17T17:57:06.986Z,25.83
2022-12-17T17:59:34.518Z,24.23
2022-12-17T18:02:02.926Z,23.85
2022-12-17T18:04:30.663Z,23.88
2022-12-17T18:09:44.234Z,25.02
2022-12-17T18:12:29.588Z,24.95
2022-12-17T18:17:45.111Z,25.60
2022-12-17T18:20:12.704Z,25.20
2022-12-17T18:22:39.805Z,25.55
2022-12-17T18:25:06.704Z,25.45
2022-12-17T18:27:33.520Z,25.00
2022-12-17T18:30:00.776Z,23.50
2022-12-17T18:32:27.709Z,25.00
2022-12-17T18:34:54.594Z,25.10
2022-12-17T18:37:21.596Z,24.55
2022-12-17T18:39:49.159Z,25.90
2022-12-17T18:42:34.538Z,25.83
2022-12-17T18:45:01.311Z,23.95
2022-12-17T18:47:28.092Z,24.75
2022-12-17T18:49:54.863Z,23.75
2022-12-17T18:52:23.637Z,22.45
2022-12-17T18:54:50.528Z,22.75
2022-12-17T18:57:17.336Z,26.88
2022-12-17T18:59:44.332Z,25.60
2022-12-17T19:02:15.507Z,27.70
2022-12-17T19:04:42.615Z,26.48
2022-12-17T19:07:09.961Z,26.33
2022-12-17T19:09:39.452Z,30.90
2022-12-17T19:12:08.554Z,31.77
2022-12-17T19:14:36.064Z,34.40
2022-12-17T19:17:03.212Z,34.15
2022-12-17T19:19:31.136Z,31.42
2022-12-17T19:22:00.256Z,33.00
2022-12-17T19:24:27.488Z,29.30
2022-12-17T19:26:54.831Z,26.65
2022-12-17T19:29:22.397Z,25.63
2022-12-17T19:31:49.767Z,28.77
2022-12-17T19:34:18.507Z,30.77
2022-12-17T19:36:46.183Z,25.27
2022-12-17T19:39:15.458Z,24.83
2022-12-17T19:41:44.128Z,25.10
2022-12-17T19:44:15.985Z,24.05
2022-12-17T19:46:43.704Z,27.50
2022-12-17T19:49:12.708Z,27.02
2022-12-17T19:51:41.239Z,27.17
2022-12-17T19:54:09.337Z,27.10
2022-12-17T19:56:36.838Z,26.48
2022-12-17T19:59:07.146Z,25.55
2022-12-17T20:01:44.052Z,25.70
2022-12-17T20:04:13.335Z,27.27
2022-12-17T20:06:40.259Z,26.13
2022-12-17T20:09:07.864Z,25.40
2022-12-17T20:11:36.107Z,25.75
2022-12-17T20:14:06.139Z,25.42
2022-12-17T20:16:35.909Z,24.33
2022-12-17T20:19:06.374Z,25.48
2022-12-17T20:21:33.590Z,24.08
2022-12-17T20:24:00.591Z,24.60
2022-12-17T20:26:27.938Z,25.77
2022-12-17T20:28:55.474Z,25.00
2022-12-17T20:31:22.367Z,25.38
2022-12-17T20:33:49.187Z,25.75
2022-12-17T20:36:17.882Z,24.63
2022-12-17T20:38:45.004Z,24.50
2022-12-17T20:41:21.087Z,25.23
2022-12-17T20:43:48.588Z,23.77
2022-12-17T20:46:16.551Z,25.02
2022-12-17T20:48:44.104Z,24.45
2022-12-17T20:51:17.400Z,24.75
2022-12-17T20:53:45.286Z,23.27
2022-12-17T20:56:17.871Z,23.85
2022-12-17T20:58:45.133Z,23.52
2022-12-17T21:01:14.044Z,22.63
2022-12-17T21:03:41.604Z,22.08
2022-12-17T21:06:20.263Z,22.00
2022-12-17T21:08:50.473Z,21.15
2022-12-17T21:11:19.689Z,21.98
2022-12-17T21:13:47.220Z,21.55
2022-12-17T21:16:17.909Z,22.60
2022-12-17T21:18:45.034Z,23.80
2022-12-17T21:21:14.997Z,22.52
2022-12-17T21:23:41.861Z,22.38
2022-12-17T21:26:15.000Z,21.75
2022-12-17T21:28:45.144Z,21.27
2022-12-17T21:31:22.893Z,22.00
2022-12-17T21:33:50.954Z,22.58
2022-12-17T21:36:20.758Z,21.35
2022-12-17T21:38:48.076Z,19.60
2022-12-17T21:41:20.845Z,18.80
2022-12-17T21:43:47.667Z,20.92
2022-12-17T21:46:14.688Z,20.65
2022-12-17T21:48:43.044Z,19.48
2022-12-17T21:51:12.583Z,18.73
2022-12-17T21:53:43.493Z,18.77
2022-12-17T21:56:13.830Z,19.38
2022-12-17T21:58:42.078Z,19.65
2022-12-17T22:01:17.180Z,19.80
2022-12-17T22:03:46.810Z,17.60
2022-12-17T22:06:16.774Z,18.23
2022-12-17T22:08:45.212Z,18.00
2022-12-17T22:11:15.468Z,16.60
2022-12-17T22:14:08.190Z,17.98
2022-12-17T22:16:48.986Z,20.17
2022-12-17T22:19:22.044Z,18.98
2022-12-17T22:21:50.861Z,18.55
2022-12-17T22:24:21.027Z,16.10
2022-12-17T22:26:48.493Z,17.23
2022-12-17T22:29:34.519Z,18.35
2022-12-17T22:32:19.767Z,19.10
2022-12-17T22:36:15.783Z,16.52
2022-12-17T22:40:19.334Z,16.77
2022-12-17T22:44:41.944Z,15.63
2022-12-17T22:44:49.641Z,16.48
2022-12-17T22:46:18.160Z,15.55
2022-12-17T22:48:45.122Z,15.38
2022-12-17T22:51:14.948Z,16.50
2022-12-17T22:53:50.760Z,15.38
2022-12-17T22:56:39.199Z,15.48
2022-12-17T22:59:05.280Z,13.40
2022-12-17T23:01:32.870Z,13.52
2022-12-17T23:04:02.220Z,14.20
2022-12-17T23:06:29.654Z,12.98
2022-12-17T23:08:56.522Z,16.80
2022-12-17T23:11:25.815Z,14.68
2022-12-17T23:13:53.522Z,15.82
2022-12-17T23:16:20.578Z,13.85
2022-12-17T23:18:50.728Z,14.20
2022-12-17T23:21:22.185Z,13.18
2022-12-17T23:23:49.044Z,14.53
2022-12-17T23:26:18.734Z,14.20
2022-12-17T23:28:45.901Z,14.10
2022-12-17T23:31:17.707Z,14.98
2022-12-17T23:33:45.210Z,14.88
2022-12-17T23:36:14.765Z,13.65
2022-12-17T23:38:42.333Z,15.05
2022-12-17T23:41:14.843Z,15.30
2022-12-17T23:43:42.233Z,16.35
2022-12-17T23:46:09.993Z,15.60
2022-12-17T23:48:45.061Z,16.65
2022-12-17T23:51:14.398Z,16.70
2022-12-17T23:53:42.172Z,16.10
2022-12-17T23:56:16.557Z,15.18
2022-12-17T23:58:45.197Z,14.80
